Pagina principale
METAR-TAF:

METAR-TAF

Aeroporti :

Dübendorf, Svizzera

latitudine: 47-23-55N, longitudine: 8-38-53E, altezza: 448 m

Osservazione

Il bollettino è stato emesso 17 minuti fa, alle 02:50 UTC
Vento 10 kt da ovest
Temperature 12°C
Umidità 71%
Pressione 1026 hPa
Visibilità 10 km o più
Poco nuvoloso ad un'altezza di 3100 ft
Cielo coperto ad un'altezza di 5000 ft
rovesci di pioggia

METAR: LSMD 240250Z AUTO 27010KT 9999NDV -SHRA FEW031 OVC050 12/07 Q1026 RMK

Ora: 04:07 (03:07 UTC)


TAF: mancante

Osservazioni e previsioni meteorologiche di più di 4000 aeroporti (messaggi METAR e TAF).

Le stazioni disponibili sono rappresentate dai dischi gialli e rossi sulla carta.

Puntare il mouse per vedere il nome della stazione.

Clicca sopra per visualizzare le osservazioni e previsioni meteorologiche.

Per cambiare la mappa : fare clic sui pulsanti verdi con una croce nera per ingrandire, il pulsante verde con un trattino per diminuire, o sulla freccia verde per le mappe adiacenti.


METAR-TAF: